sensor_id;sensor_type;location;lat;lon;timestamp;P1;durP1;ratioP1;P2;durP2;ratioP2
73142;SDS011;61343;53.694;9.988;2022-08-04T00:05:05;13.90;;;5.20;;
73142;SDS011;61343;53.694;9.988;2022-08-04T00:07:53;12.40;;;5.23;;
73142;SDS011;61343;53.694;9.988;2022-08-04T00:10:32;15.40;;;5.75;;
73142;SDS011;61343;53.694;9.988;2022-08-04T00:13:01;11.40;;;6.35;;
73142;SDS011;61343;53.694;9.988;2022-08-04T00:15:28;15.23;;;5.93;;
73142;SDS011;61343;53.694;9.988;2022-08-04T00:18:02;15.15;;;6.07;;
73142;SDS011;61343;53.694;9.988;2022-08-04T00:20:33;13.87;;;6.13;;
73142;SDS011;61343;53.694;9.988;2022-08-04T00:23:02;12.32;;;6.28;;
73142;SDS011;61343;53.694;9.988;2022-08-04T00:25:29;14.63;;;6.22;;
73142;SDS011;61343;53.694;9.988;2022-08-04T00:27:55;14.07;;;6.17;;
73142;SDS011;61343;53.694;9.988;2022-08-04T00:30:20;12.83;;;6.03;;
73142;SDS011;61343;53.694;9.988;2022-08-04T00:32:46;16.75;;;5.70;;
73142;SDS011;61343;53.694;9.988;2022-08-04T00:35:12;13.67;;;5.03;;
73142;SDS011;61343;53.694;9.988;2022-08-04T00:37:39;12.32;;;5.80;;
73142;SDS011;61343;53.694;9.988;2022-08-04T00:40:08;12.30;;;5.60;;
73142;SDS011;61343;53.694;9.988;2022-08-04T00:45:43;11.77;;;5.38;;
73142;SDS011;61343;53.694;9.988;2022-08-04T00:51:04;11.63;;;5.13;;
73142;SDS011;61343;53.694;9.988;2022-08-04T00:53:41;15.38;;;5.43;;
73142;SDS011;61343;53.694;9.988;2022-08-04T01:08:08;16.02;;;5.00;;
73142;SDS011;61343;53.694;9.988;2022-08-04T01:13:40;12.60;;;5.30;;
73142;SDS011;61343;53.694;9.988;2022-08-04T01:16:26;10.17;;;4.50;;
73142;SDS011;61343;53.694;9.988;2022-08-04T01:18:58;14.95;;;4.72;;
73142;SDS011;61343;53.694;9.988;2022-08-04T01:24:28;12.20;;;4.80;;
73142;SDS011;61343;53.694;9.988;2022-08-04T01:26:56;10.77;;;4.30;;
73142;SDS011;61343;53.694;9.988;2022-08-04T01:29:27;10.60;;;4.70;;
73142;SDS011;61343;53.694;9.988;2022-08-04T01:32:06;14.05;;;4.95;;
73142;SDS011;61343;53.694;9.988;2022-08-04T01:34:44;15.45;;;4.80;;
73142;SDS011;61343;53.694;9.988;2022-08-04T01:40:09;10.73;;;4.30;;
73142;SDS011;61343;53.694;9.988;2022-08-04T01:42:38;10.55;;;4.55;;
73142;SDS011;61343;53.694;9.988;2022-08-04T01:45:06;14.20;;;4.90;;
73142;SDS011;61343;53.694;9.988;2022-08-04T01:47:34;11.38;;;4.68;;
73142;SDS011;61343;53.694;9.988;2022-08-04T01:50:03;13.03;;;4.80;;
73142;SDS011;61343;53.694;9.988;2022-08-04T01:52:32;10.75;;;5.00;;
73142;SDS011;61343;53.694;9.988;2022-08-04T01:55:00;12.75;;;5.18;;
73142;SDS011;61343;53.694;9.988;2022-08-04T01:57:29;9.73;;;4.32;;
73142;SDS011;61343;53.694;9.988;2022-08-04T01:59:57;11.77;;;4.45;;
73142;SDS011;61343;53.694;9.988;2022-08-04T02:02:23;8.37;;;4.50;;
73142;SDS011;61343;53.694;9.988;2022-08-04T02:04:48;10.90;;;4.20;;
73142;SDS011;61343;53.694;9.988;2022-08-04T02:12:55;7.70;;;4.20;;
73142;SDS011;61343;53.694;9.988;2022-08-04T02:15:46;8.90;;;4.28;;
73142;SDS011;61343;53.694;9.988;2022-08-04T02:21:01;9.70;;;4.40;;
73142;SDS011;61343;53.694;9.988;2022-08-04T02:23:29;8.70;;;4.20;;
73142;SDS011;61343;53.694;9.988;2022-08-04T02:25:56;8.90;;;4.33;;
73142;SDS011;61343;53.694;9.988;2022-08-04T02:28:34;10.75;;;4.00;;
73142;SDS011;61343;53.694;9.988;2022-08-04T02:31:08;9.63;;;4.25;;
73142;SDS011;61343;53.694;9.988;2022-08-04T02:33:41;8.25;;;3.72;;
73142;SDS011;61343;53.694;9.988;2022-08-04T02:36:09;8.95;;;4.00;;
73142;SDS011;61343;53.694;9.988;2022-08-04T02:41:15;8.65;;;3.95;;
73142;SDS011;61343;53.694;9.988;2022-08-04T02:43:42;8.25;;;3.75;;
73142;SDS011;61343;53.694;9.988;2022-08-04T02:46:11;9.55;;;3.85;;
73142;SDS011;61343;53.694;9.988;2022-08-04T02:48:37;12.85;;;3.97;;
73142;SDS011;61343;53.694;9.988;2022-08-04T02:51:06;8.33;;;3.60;;
73142;SDS011;61343;53.694;9.988;2022-08-04T02:53:31;12.82;;;3.70;;
73142;SDS011;61343;53.694;9.988;2022-08-04T02:55:58;8.13;;;3.90;;
73142;SDS011;61343;53.694;9.988;2022-08-04T02:58:24;9.93;;;3.95;;
73142;SDS011;61343;53.694;9.988;2022-08-04T03:00:58;9.03;;;3.87;;
73142;SDS011;61343;53.694;9.988;2022-08-04T03:03:25;8.57;;;3.90;;
73142;SDS011;61343;53.694;9.988;2022-08-04T03:14:18;10.60;;;3.83;;
73142;SDS011;61343;53.694;9.988;2022-08-04T03:22:52;8.77;;;4.05;;
73142;SDS011;61343;53.694;9.988;2022-08-04T03:26:01;9.35;;;3.72;;
73142;SDS011;61343;53.694;9.988;2022-08-04T03:42:50;10.90;;;3.67;;
73142;SDS011;61343;53.694;9.988;2022-08-04T04:00:07;8.00;;;3.90;;
73142;SDS011;61343;53.694;9.988;2022-08-04T04:21:57;9.27;;;3.47;;
73142;SDS011;61343;53.694;9.988;2022-08-04T04:27:25;11.48;;;3.33;;
73142;SDS011;61343;53.694;9.988;2022-08-04T04:30:16;5.95;;;2.90;;
73142;SDS011;61343;53.694;9.988;2022-08-04T04:36:10;10.25;;;3.35;;
73142;SDS011;61343;53.694;9.988;2022-08-04T04:38:43;9.97;;;3.40;;
73142;SDS011;61343;53.694;9.988;2022-08-04T04:41:29;12.75;;;3.35;;
73142;SDS011;61343;53.694;9.988;2022-08-04T04:47:08;11.73;;;4.20;;
73142;SDS011;61343;53.694;9.988;2022-08-04T04:49:43;7.68;;;3.13;;
73142;SDS011;61343;53.694;9.988;2022-08-04T04:52:20;7.43;;;3.03;;
73142;SDS011;61343;53.694;9.988;2022-08-04T04:54:58;9.23;;;3.20;;
73142;SDS011;61343;53.694;9.988;2022-08-04T04:57:28;12.63;;;3.50;;
73142;SDS011;61343;53.694;9.988;2022-08-04T04:59:59;7.45;;;3.30;;
73142;SDS011;61343;53.694;9.988;2022-08-04T05:05:41;9.27;;;3.30;;
73142;SDS011;61343;53.694;9.988;2022-08-04T05:16:32;9.32;;;2.88;;
73142;SDS011;61343;53.694;9.988;2022-08-04T05:19:12;9.77;;;2.97;;
73142;SDS011;61343;53.694;9.988;2022-08-04T05:21:47;11.45;;;2.90;;
73142;SDS011;61343;53.694;9.988;2022-08-04T05:24:16;8.30;;;2.60;;
73142;SDS011;61343;53.694;9.988;2022-08-04T05:26:44;7.03;;;3.30;;
73142;SDS011;61343;53.694;9.988;2022-08-04T05:29:27;9.70;;;4.05;;
73142;SDS011;61343;53.694;9.988;2022-08-04T05:31:56;13.77;;;2.60;;
73142;SDS011;61343;53.694;9.988;2022-08-04T05:34:26;10.60;;;2.50;;
73142;SDS011;61343;53.694;9.988;2022-08-04T05:36:56;6.80;;;2.90;;
73142;SDS011;61343;53.694;9.988;2022-08-04T05:39:24;11.50;;;3.33;;
73142;SDS011;61343;53.694;9.988;2022-08-04T05:41:56;5.82;;;2.70;;
73142;SDS011;61343;53.694;9.988;2022-08-04T05:44:23;8.67;;;2.97;;
73142;SDS011;61343;53.694;9.988;2022-08-04T05:46:51;8.82;;;2.70;;
73142;SDS011;61343;53.694;9.988;2022-08-04T05:49:21;9.60;;;3.17;;
73142;SDS011;61343;53.694;9.988;2022-08-04T05:51:47;10.57;;;2.92;;
73142;SDS011;61343;53.694;9.988;2022-08-04T05:54:13;7.07;;;2.70;;
73142;SDS011;61343;53.694;9.988;2022-08-04T05:56:40;7.67;;;2.63;;
73142;SDS011;61343;53.694;9.988;2022-08-04T05:59:06;10.07;;;2.80;;
73142;SDS011;61343;53.694;9.988;2022-08-04T06:01:34;7.80;;;2.60;;
73142;SDS011;61343;53.694;9.988;2022-08-04T06:04:03;10.50;;;2.70;;
73142;SDS011;61343;53.694;9.988;2022-08-04T06:06:29;10.30;;;2.85;;
73142;SDS011;61343;53.694;9.988;2022-08-04T06:08:56;10.20;;;2.67;;
73142;SDS011;61343;53.694;9.988;2022-08-04T06:11:22;5.35;;;2.47;;
73142;SDS011;61343;53.694;9.988;2022-08-04T06:13:52;10.75;;;2.85;;
73142;SDS011;61343;53.694;9.988;2022-08-04T06:16:21;9.43;;;3.00;;
73142;SDS011;61343;53.694;9.988;2022-08-04T06:18:48;9.73;;;2.72;;
73142;SDS011;61343;53.694;9.988;2022-08-04T06:21:17;11.83;;;3.20;;
73142;SDS011;61343;53.694;9.988;2022-08-04T06:23:45;12.80;;;3.03;;
73142;SDS011;61343;53.694;9.988;2022-08-04T06:26:13;7.80;;;2.80;;
73142;SDS011;61343;53.694;9.988;2022-08-04T06:28:44;8.60;;;2.63;;
73142;SDS011;61343;53.694;9.988;2022-08-04T06:31:13;10.23;;;2.95;;
73142;SDS011;61343;53.694;9.988;2022-08-04T06:33:46;9.03;;;2.57;;
73142;SDS011;61343;53.694;9.988;2022-08-04T06:36:14;8.27;;;2.95;;
73142;SDS011;61343;53.694;9.988;2022-08-04T06:38:40;10.75;;;2.58;;
73142;SDS011;61343;53.694;9.988;2022-08-04T06:41:06;8.93;;;2.47;;
73142;SDS011;61343;53.694;9.988;2022-08-04T06:43:33;9.77;;;2.58;;
73142;SDS011;61343;53.694;9.988;2022-08-04T06:46:01;8.10;;;2.50;;
73142;SDS011;61343;53.694;9.988;2022-08-04T06:48:30;10.55;;;2.70;;
73142;SDS011;61343;53.694;9.988;2022-08-04T06:50:56;7.18;;;2.28;;
73142;SDS011;61343;53.694;9.988;2022-08-04T06:53:23;7.20;;;2.70;;
73142;SDS011;61343;53.694;9.988;2022-08-04T06:55:49;11.20;;;2.58;;
73142;SDS011;61343;53.694;9.988;2022-08-04T06:58:16;9.65;;;2.40;;
73142;SDS011;61343;53.694;9.988;2022-08-04T07:00:44;6.60;;;2.60;;
73142;SDS011;61343;53.694;9.988;2022-08-04T07:03:11;7.80;;;2.35;;
73142;SDS011;61343;53.694;9.988;2022-08-04T07:05:37;12.30;;;3.30;;
73142;SDS011;61343;53.694;9.988;2022-08-04T07:08:04;8.77;;;2.78;;
73142;SDS011;61343;53.694;9.988;2022-08-04T07:10:29;6.80;;;2.70;;
73142;SDS011;61343;53.694;9.988;2022-08-04T07:12:56;5.40;;;2.30;;
73142;SDS011;61343;53.694;9.988;2022-08-04T07:15:22;8.68;;;2.30;;
73142;SDS011;61343;53.694;9.988;2022-08-04T07:17:49;7.97;;;2.38;;
73142;SDS011;61343;53.694;9.988;2022-08-04T07:20:15;8.63;;;2.20;;
73142;SDS011;61343;53.694;9.988;2022-08-04T07:22:41;8.00;;;2.57;;
73142;SDS011;61343;53.694;9.988;2022-08-04T07:25:08;7.97;;;2.20;;
73142;SDS011;61343;53.694;9.988;2022-08-04T07:27:34;8.50;;;2.40;;
73142;SDS011;61343;53.694;9.988;2022-08-04T07:30:00;8.82;;;2.58;;
73142;SDS011;61343;53.694;9.988;2022-08-04T07:32:27;10.43;;;2.60;;
73142;SDS011;61343;53.694;9.988;2022-08-04T07:34:53;8.48;;;2.35;;
73142;SDS011;61343;53.694;9.988;2022-08-04T07:37:19;7.43;;;2.40;;
73142;SDS011;61343;53.694;9.988;2022-08-04T07:39:45;7.45;;;2.47;;
73142;SDS011;61343;53.694;9.988;2022-08-04T07:42:10;9.10;;;2.60;;
73142;SDS011;61343;53.694;9.988;2022-08-04T07:44:36;10.05;;;2.70;;
73142;SDS011;61343;53.694;9.988;2022-08-04T07:47:04;6.77;;;2.10;;
73142;SDS011;61343;53.694;9.988;2022-08-04T07:49:31;7.95;;;2.65;;
73142;SDS011;61343;53.694;9.988;2022-08-04T07:51:56;10.37;;;2.57;;
73142;SDS011;61343;53.694;9.988;2022-08-04T07:54:22;10.23;;;2.30;;
73142;SDS011;61343;53.694;9.988;2022-08-04T07:56:48;9.40;;;2.03;;
73142;SDS011;61343;53.694;9.988;2022-08-04T07:59:15;9.47;;;2.20;;
73142;SDS011;61343;53.694;9.988;2022-08-04T08:01:41;7.38;;;2.60;;
73142;SDS011;61343;53.694;9.988;2022-08-04T08:04:07;9.97;;;2.67;;
73142;SDS011;61343;53.694;9.988;2022-08-04T08:06:37;10.23;;;2.27;;
73142;SDS011;61343;53.694;9.988;2022-08-04T08:09:08;10.27;;;2.10;;
73142;SDS011;61343;53.694;9.988;2022-08-04T08:11:42;9.55;;;2.08;;
73142;SDS011;61343;53.694;9.988;2022-08-04T08:14:09;7.93;;;2.30;;
73142;SDS011;61343;53.694;9.988;2022-08-04T08:16:35;6.13;;;1.87;;
73142;SDS011;61343;53.694;9.988;2022-08-04T08:19:01;8.95;;;2.10;;
73142;SDS011;61343;53.694;9.988;2022-08-04T08:21:27;8.50;;;2.30;;
73142;SDS011;61343;53.694;9.988;2022-08-04T08:23:53;6.73;;;1.83;;
73142;SDS011;61343;53.694;9.988;2022-08-04T08:26:19;8.38;;;2.00;;
73142;SDS011;61343;53.694;9.988;2022-08-04T08:28:44;7.70;;;2.10;;
73142;SDS011;61343;53.694;9.988;2022-08-04T08:31:11;8.02;;;2.13;;
73142;SDS011;61343;53.694;9.988;2022-08-04T08:33:36;5.77;;;2.03;;
73142;SDS011;61343;53.694;9.988;2022-08-04T08:39:04;9.13;;;2.10;;
73142;SDS011;61343;53.694;9.988;2022-08-04T08:53:00;6.53;;;2.20;;
73142;SDS011;61343;53.694;9.988;2022-08-04T08:55:39;6.63;;;2.15;;
73142;SDS011;61343;53.694;9.988;2022-08-04T09:01:05;7.57;;;2.10;;
73142;SDS011;61343;53.694;9.988;2022-08-04T09:06:27;8.07;;;1.77;;
73142;SDS011;61343;53.694;9.988;2022-08-04T09:14:28;8.43;;;1.95;;
73142;SDS011;61343;53.694;9.988;2022-08-04T09:17:04;9.57;;;2.20;;
73142;SDS011;61343;53.694;9.988;2022-08-04T09:19:41;7.87;;;2.00;;
73142;SDS011;61343;53.694;9.988;2022-08-04T09:25:08;6.78;;;2.00;;
73142;SDS011;61343;53.694;9.988;2022-08-04T09:27:41;8.73;;;2.10;;
73142;SDS011;61343;53.694;9.988;2022-08-04T09:30:14;9.15;;;2.13;;
73142;SDS011;61343;53.694;9.988;2022-08-04T09:32:57;11.57;;;2.47;;
73142;SDS011;61343;53.694;9.988;2022-08-04T09:35:39;12.02;;;2.35;;
73142;SDS011;61343;53.694;9.988;2022-08-04T09:38:19;7.75;;;2.22;;
73142;SDS011;61343;53.694;9.988;2022-08-04T09:49:39;4.70;;;2.00;;
73142;SDS011;61343;53.694;9.988;2022-08-04T09:52:25;5.57;;;2.30;;
73142;SDS011;61343;53.694;9.988;2022-08-04T09:55:04;5.60;;;2.20;;
73142;SDS011;61343;53.694;9.988;2022-08-04T09:57:44;5.60;;;2.15;;
73142;SDS011;61343;53.694;9.988;2022-08-04T10:00:17;6.57;;;2.40;;
73142;SDS011;61343;53.694;9.988;2022-08-04T10:02:57;5.78;;;2.30;;
73142;SDS011;61343;53.694;9.988;2022-08-04T10:05:25;7.65;;;2.20;;
73142;SDS011;61343;53.694;9.988;2022-08-04T10:08:15;5.97;;;2.35;;
73142;SDS011;61343;53.694;9.988;2022-08-04T10:21:37;5.85;;;2.53;;
73142;SDS011;61343;53.694;9.988;2022-08-04T10:26:46;7.30;;;2.50;;
73142;SDS011;61343;53.694;9.988;2022-08-04T10:31:59;5.43;;;2.50;;
73142;SDS011;61343;53.694;9.988;2022-08-04T10:34:35;6.55;;;2.60;;
73142;SDS011;61343;53.694;9.988;2022-08-04T10:37:22;7.13;;;2.22;;
73142;SDS011;61343;53.694;9.988;2022-08-04T10:39:58;7.63;;;2.20;;
73142;SDS011;61343;53.694;9.988;2022-08-04T10:42:56;7.88;;;2.60;;
73142;SDS011;61343;53.694;9.988;2022-08-04T10:45:26;7.70;;;3.57;;
73142;SDS011;61343;53.694;9.988;2022-08-04T10:48:19;7.00;;;2.85;;
73142;SDS011;61343;53.694;9.988;2022-08-04T10:51:01;6.90;;;2.75;;
73142;SDS011;61343;53.694;9.988;2022-08-04T10:53:36;8.57;;;2.70;;
73142;SDS011;61343;53.694;9.988;2022-08-04T10:56:12;8.43;;;2.75;;
73142;SDS011;61343;53.694;9.988;2022-08-04T10:58:44;6.63;;;2.67;;
73142;SDS011;61343;53.694;9.988;2022-08-04T11:01:23;7.22;;;2.92;;
73142;SDS011;61343;53.694;9.988;2022-08-04T11:03:55;7.50;;;2.40;;
73142;SDS011;61343;53.694;9.988;2022-08-04T11:06:23;8.40;;;2.70;;
73142;SDS011;61343;53.694;9.988;2022-08-04T11:08:50;6.97;;;2.70;;
73142;SDS011;61343;53.694;9.988;2022-08-04T11:16:35;7.30;;;2.47;;
73142;SDS011;61343;53.694;9.988;2022-08-04T11:19:09;8.25;;;2.38;;
73142;SDS011;61343;53.694;9.988;2022-08-04T11:22:22;8.48;;;2.53;;
73142;SDS011;61343;53.694;9.988;2022-08-04T11:24:54;7.93;;;2.87;;
73142;SDS011;61343;53.694;9.988;2022-08-04T11:30:35;6.57;;;2.63;;
73142;SDS011;61343;53.694;9.988;2022-08-04T11:33:08;7.18;;;2.83;;
73142;SDS011;61343;53.694;9.988;2022-08-04T11:41:25;6.68;;;2.70;;
73142;SDS011;61343;53.694;9.988;2022-08-04T11:44:01;9.27;;;2.80;;
73142;SDS011;61343;53.694;9.988;2022-08-04T11:51:45;5.60;;;2.50;;
73142;SDS011;61343;53.694;9.988;2022-08-04T11:54:14;8.25;;;2.80;;
73142;SDS011;61343;53.694;9.988;2022-08-04T11:56:41;7.07;;;2.50;;
73142;SDS011;61343;53.694;9.988;2022-08-04T11:59:06;5.37;;;2.53;;
73142;SDS011;61343;53.694;9.988;2022-08-04T12:04:36;6.10;;;2.45;;
73142;SDS011;61343;53.694;9.988;2022-08-04T12:10:33;8.47;;;2.67;;
73142;SDS011;61343;53.694;9.988;2022-08-04T12:18:29;5.30;;;2.58;;
73142;SDS011;61343;53.694;9.988;2022-08-04T12:21:04;8.35;;;2.50;;
73142;SDS011;61343;53.694;9.988;2022-08-04T12:23:35;6.37;;;2.30;;
73142;SDS011;61343;53.694;9.988;2022-08-04T12:26:05;6.57;;;2.50;;
73142;SDS011;61343;53.694;9.988;2022-08-04T12:28:39;6.78;;;2.50;;
73142;SDS011;61343;53.694;9.988;2022-08-04T12:31:18;5.05;;;2.30;;
73142;SDS011;61343;53.694;9.988;2022-08-04T12:34:07;5.10;;;2.40;;
73142;SDS011;61343;53.694;9.988;2022-08-04T12:36:51;6.53;;;2.40;;
73142;SDS011;61343;53.694;9.988;2022-08-04T12:39:23;4.32;;;1.75;;
73142;SDS011;61343;53.694;9.988;2022-08-04T12:44:47;4.13;;;1.80;;
73142;SDS011;61343;53.694;9.988;2022-08-04T12:47:20;5.28;;;1.80;;
73142;SDS011;61343;53.694;9.988;2022-08-04T12:49:48;5.10;;;1.80;;
73142;SDS011;61343;53.694;9.988;2022-08-04T12:52:15;6.22;;;1.92;;
73142;SDS011;61343;53.694;9.988;2022-08-04T12:54:42;4.70;;;2.08;;
73142;SDS011;61343;53.694;9.988;2022-08-04T12:57:11;5.05;;;2.10;;
73142;SDS011;61343;53.694;9.988;2022-08-04T12:59:40;4.30;;;1.85;;
73142;SDS011;61343;53.694;9.988;2022-08-04T13:02:15;5.80;;;1.80;;
73142;SDS011;61343;53.694;9.988;2022-08-04T13:04:54;5.75;;;1.80;;
73142;SDS011;61343;53.694;9.988;2022-08-04T13:07:23;6.28;;;2.00;;
73142;SDS011;61343;53.694;9.988;2022-08-04T13:09:52;4.93;;;1.90;;
73142;SDS011;61343;53.694;9.988;2022-08-04T13:12:18;6.33;;;2.17;;
73142;SDS011;61343;53.694;9.988;2022-08-04T13:14:47;7.35;;;2.28;;
73142;SDS011;61343;53.694;9.988;2022-08-04T13:17:15;5.78;;;2.22;;
73142;SDS011;61343;53.694;9.988;2022-08-04T13:19:45;7.00;;;2.47;;
73142;SDS011;61343;53.694;9.988;2022-08-04T13:22:12;6.15;;;2.20;;
73142;SDS011;61343;53.694;9.988;2022-08-04T13:24:40;4.60;;;2.40;;
73142;SDS011;61343;53.694;9.988;2022-08-04T13:27:08;5.60;;;2.30;;
73142;SDS011;61343;53.694;9.988;2022-08-04T13:29:41;5.63;;;2.30;;
73142;SDS011;61343;53.694;9.988;2022-08-04T13:32:08;8.15;;;2.35;;
73142;SDS011;61343;53.694;9.988;2022-08-04T13:34:40;4.93;;;2.13;;
73142;SDS011;61343;53.694;9.988;2022-08-04T13:37:07;5.93;;;2.17;;
73142;SDS011;61343;53.694;9.988;2022-08-04T13:39:34;8.83;;;2.50;;
73142;SDS011;61343;53.694;9.988;2022-08-04T13:42:02;5.07;;;2.10;;
73142;SDS011;61343;53.694;9.988;2022-08-04T13:44:33;5.30;;;2.33;;
73142;SDS011;61343;53.694;9.988;2022-08-04T13:47:02;6.32;;;2.20;;
73142;SDS011;61343;53.694;9.988;2022-08-04T13:49:31;6.18;;;2.30;;
73142;SDS011;61343;53.694;9.988;2022-08-04T13:51:58;5.97;;;2.23;;
73142;SDS011;61343;53.694;9.988;2022-08-04T13:54:35;7.75;;;2.20;;
73142;SDS011;61343;53.694;9.988;2022-08-04T13:57:04;4.75;;;2.30;;
73142;SDS011;61343;53.694;9.988;2022-08-04T13:59:35;4.23;;;1.90;;
73142;SDS011;61343;53.694;9.988;2022-08-04T14:02:04;5.15;;;1.95;;
73142;SDS011;61343;53.694;9.988;2022-08-04T14:04:33;5.75;;;2.42;;
73142;SDS011;61343;53.694;9.988;2022-08-04T14:07:05;5.68;;;2.00;;
73142;SDS011;61343;53.694;9.988;2022-08-04T14:09:37;4.57;;;2.05;;
73142;SDS011;61343;53.694;9.988;2022-08-04T14:12:05;4.40;;;2.10;;
73142;SDS011;61343;53.694;9.988;2022-08-04T14:14:33;6.95;;;1.90;;
73142;SDS011;61343;53.694;9.988;2022-08-04T14:17:05;6.50;;;2.20;;
73142;SDS011;61343;53.694;9.988;2022-08-04T14:22:20;5.45;;;1.90;;
73142;SDS011;61343;53.694;9.988;2022-08-04T14:25:03;4.73;;;2.00;;
73142;SDS011;61343;53.694;9.988;2022-08-04T14:30:26;7.43;;;2.60;;
73142;SDS011;61343;53.694;9.988;2022-08-04T14:33:00;8.02;;;2.60;;
73142;SDS011;61343;53.694;9.988;2022-08-04T14:35:27;8.90;;;2.70;;
73142;SDS011;61343;53.694;9.988;2022-08-04T14:37:56;10.63;;;2.90;;
73142;SDS011;61343;53.694;9.988;2022-08-04T14:40:24;9.80;;;2.45;;
73142;SDS011;61343;53.694;9.988;2022-08-04T14:42:51;7.28;;;2.58;;
73142;SDS011;61343;53.694;9.988;2022-08-04T14:45:16;11.30;;;3.00;;
73142;SDS011;61343;53.694;9.988;2022-08-04T14:47:43;7.40;;;2.60;;
73142;SDS011;61343;53.694;9.988;2022-08-04T14:50:10;8.15;;;2.83;;
73142;SDS011;61343;53.694;9.988;2022-08-04T14:52:36;6.95;;;2.85;;
73142;SDS011;61343;53.694;9.988;2022-08-04T14:55:21;7.85;;;2.70;;
73142;SDS011;61343;53.694;9.988;2022-08-04T14:57:49;11.25;;;3.40;;
73142;SDS011;61343;53.694;9.988;2022-08-04T15:00:25;10.63;;;3.17;;
73142;SDS011;61343;53.694;9.988;2022-08-04T15:02:53;8.20;;;3.00;;
73142;SDS011;61343;53.694;9.988;2022-08-04T15:05:28;12.10;;;3.33;;
73142;SDS011;61343;53.694;9.988;2022-08-04T15:07:55;9.27;;;3.35;;
73142;SDS011;61343;53.694;9.988;2022-08-04T15:10:21;9.43;;;3.50;;
73142;SDS011;61343;53.694;9.988;2022-08-04T15:12:46;17.17;;;3.80;;
73142;SDS011;61343;53.694;9.988;2022-08-04T15:15:12;13.63;;;3.37;;
73142;SDS011;61343;53.694;9.988;2022-08-04T15:17:39;10.15;;;3.42;;
73142;SDS011;61343;53.694;9.988;2022-08-04T15:20:04;9.37;;;3.40;;
73142;SDS011;61343;53.694;9.988;2022-08-04T15:22:31;8.88;;;3.15;;
73142;SDS011;61343;53.694;9.988;2022-08-04T15:24:56;9.23;;;3.13;;
73142;SDS011;61343;53.694;9.988;2022-08-04T15:27:26;13.63;;;3.27;;
73142;SDS011;61343;53.694;9.988;2022-08-04T15:29:55;10.90;;;2.90;;
73142;SDS011;61343;53.694;9.988;2022-08-04T15:32:24;9.80;;;3.35;;
73142;SDS011;61343;53.694;9.988;2022-08-04T15:34:51;9.13;;;3.13;;
73142;SDS011;61343;53.694;9.988;2022-08-04T15:37:24;13.02;;;3.42;;
73142;SDS011;61343;53.694;9.988;2022-08-04T15:39:57;16.33;;;3.80;;
73142;SDS011;61343;53.694;9.988;2022-08-04T15:42:31;12.88;;;3.30;;
73142;SDS011;61343;53.694;9.988;2022-08-04T15:45:09;12.30;;;3.22;;
73142;SDS011;61343;53.694;9.988;2022-08-04T15:47:41;9.80;;;2.83;;
73142;SDS011;61343;53.694;9.988;2022-08-04T15:50:11;12.00;;;3.60;;
73142;SDS011;61343;53.694;9.988;2022-08-04T15:52:58;11.13;;;3.40;;
73142;SDS011;61343;53.694;9.988;2022-08-04T15:55:29;14.93;;;3.22;;
73142;SDS011;61343;53.694;9.988;2022-08-04T15:57:56;12.90;;;3.40;;
73142;SDS011;61343;53.694;9.988;2022-08-04T16:00:25;16.20;;;3.05;;
73142;SDS011;61343;53.694;9.988;2022-08-04T16:02:51;11.90;;;3.53;;
73142;SDS011;61343;53.694;9.988;2022-08-04T16:07:55;15.75;;;3.78;;
73142;SDS011;61343;53.694;9.988;2022-08-04T16:12:55;12.93;;;3.92;;
73142;SDS011;61343;53.694;9.988;2022-08-04T16:18:05;14.48;;;4.85;;
73142;SDS011;61343;53.694;9.988;2022-08-04T16:20:32;14.13;;;4.80;;
73142;SDS011;61343;53.694;9.988;2022-08-04T16:26:02;16.42;;;5.30;;
73142;SDS011;61343;53.694;9.988;2022-08-04T16:30:58;18.52;;;6.20;;
73142;SDS011;61343;53.694;9.988;2022-08-04T16:33:26;16.33;;;6.20;;
73142;SDS011;61343;53.694;9.988;2022-08-04T16:35:54;15.65;;;6.30;;
73142;SDS011;61343;53.694;9.988;2022-08-04T16:38:20;15.38;;;6.45;;
73142;SDS011;61343;53.694;9.988;2022-08-04T16:40:45;15.20;;;6.17;;
73142;SDS011;61343;53.694;9.988;2022-08-04T16:43:21;17.00;;;7.15;;
73142;SDS011;61343;53.694;9.988;2022-08-04T16:45:55;16.55;;;6.32;;
73142;SDS011;61343;53.694;9.988;2022-08-04T16:50:53;15.88;;;6.57;;
73142;SDS011;61343;53.694;9.988;2022-08-04T16:53:22;16.77;;;6.82;;
73142;SDS011;61343;53.694;9.988;2022-08-04T16:55:51;18.63;;;6.47;;
73142;SDS011;61343;53.694;9.988;2022-08-04T16:58:23;20.27;;;6.97;;
73142;SDS011;61343;53.694;9.988;2022-08-04T17:00:54;12.70;;;5.47;;
73142;SDS011;61343;53.694;9.988;2022-08-04T17:03:20;13.02;;;6.47;;
73142;SDS011;61343;53.694;9.988;2022-08-04T17:05:46;30.73;;;6.75;;
73142;SDS011;61343;53.694;9.988;2022-08-04T17:08:12;11.70;;;5.90;;
73142;SDS011;61343;53.694;9.988;2022-08-04T17:15:56;16.42;;;6.15;;
73142;SDS011;61343;53.694;9.988;2022-08-04T17:18:24;15.65;;;6.32;;
73142;SDS011;61343;53.694;9.988;2022-08-04T17:20:53;14.43;;;6.20;;
73142;SDS011;61343;53.694;9.988;2022-08-04T17:23:25;14.97;;;6.23;;
73142;SDS011;61343;53.694;9.988;2022-08-04T17:28:37;14.18;;;5.88;;
73142;SDS011;61343;53.694;9.988;2022-08-04T17:31:05;13.93;;;5.50;;
73142;SDS011;61343;53.694;9.988;2022-08-04T17:33:33;13.48;;;5.00;;
73142;SDS011;61343;53.694;9.988;2022-08-04T17:36:00;16.30;;;6.10;;
73142;SDS011;61343;53.694;9.988;2022-08-04T17:38:45;12.82;;;4.95;;
73142;SDS011;61343;53.694;9.988;2022-08-04T17:41:13;18.00;;;4.40;;
73142;SDS011;61343;53.694;9.988;2022-08-04T17:43:53;12.35;;;4.40;;
73142;SDS011;61343;53.694;9.988;2022-08-04T17:46:20;10.68;;;3.88;;
73142;SDS011;61343;53.694;9.988;2022-08-04T17:48:54;11.03;;;4.10;;
73142;SDS011;61343;53.694;9.988;2022-08-04T17:51:31;10.38;;;3.80;;
73142;SDS011;61343;53.694;9.988;2022-08-04T17:54:02;13.18;;;3.55;;
73142;SDS011;61343;53.694;9.988;2022-08-04T17:56:38;11.13;;;3.85;;
73142;SDS011;61343;53.694;9.988;2022-08-04T18:07:16;8.93;;;3.10;;
73142;SDS011;61343;53.694;9.988;2022-08-04T18:12:22;11.23;;;3.15;;
73142;SDS011;61343;53.694;9.988;2022-08-04T18:14:50;7.57;;;3.20;;
73142;SDS011;61343;53.694;9.988;2022-08-04T18:19:58;7.18;;;3.03;;
73142;SDS011;61343;53.694;9.988;2022-08-04T18:22:24;10.02;;;3.00;;
73142;SDS011;61343;53.694;9.988;2022-08-04T18:24:49;8.97;;;2.90;;
73142;SDS011;61343;53.694;9.988;2022-08-04T18:27:15;11.23;;;4.00;;
73142;SDS011;61343;53.694;9.988;2022-08-04T18:29:41;12.60;;;3.80;;
73142;SDS011;61343;53.694;9.988;2022-08-04T18:32:07;10.67;;;3.37;;
73142;SDS011;61343;53.694;9.988;2022-08-04T18:34:33;10.07;;;3.42;;
73142;SDS011;61343;53.694;9.988;2022-08-04T18:36:59;10.18;;;2.95;;
73142;SDS011;61343;53.694;9.988;2022-08-04T18:39:24;9.33;;;3.00;;
73142;SDS011;61343;53.694;9.988;2022-08-04T18:41:52;10.82;;;3.10;;
73142;SDS011;61343;53.694;9.988;2022-08-04T18:44:17;9.67;;;3.33;;
73142;SDS011;61343;53.694;9.988;2022-08-04T18:46:44;8.63;;;3.20;;
73142;SDS011;61343;53.694;9.988;2022-08-04T18:49:09;9.53;;;3.13;;
73142;SDS011;61343;53.694;9.988;2022-08-04T18:51:35;10.48;;;3.05;;
73142;SDS011;61343;53.694;9.988;2022-08-04T18:54:01;10.03;;;2.73;;
73142;SDS011;61343;53.694;9.988;2022-08-04T18:56:27;9.27;;;3.83;;
73142;SDS011;61343;53.694;9.988;2022-08-04T18:58:54;12.50;;;4.18;;
73142;SDS011;61343;53.694;9.988;2022-08-04T19:01:19;9.97;;;3.27;;
73142;SDS011;61343;53.694;9.988;2022-08-04T19:03:44;9.93;;;3.30;;
73142;SDS011;61343;53.694;9.988;2022-08-04T19:06:10;7.40;;;3.27;;
73142;SDS011;61343;53.694;9.988;2022-08-04T19:08:35;11.07;;;3.23;;
73142;SDS011;61343;53.694;9.988;2022-08-04T19:11:02;7.90;;;3.60;;
73142;SDS011;61343;53.694;9.988;2022-08-04T19:13:28;10.60;;;4.20;;
73142;SDS011;61343;53.694;9.988;2022-08-04T19:15:54;12.35;;;3.90;;
73142;SDS011;61343;53.694;9.988;2022-08-04T19:18:19;7.73;;;3.67;;